sensor_id;sensor_type;location;lat;lon;timestamp;pressure;altitude;pressure_sealevel;temperature
45565;BMP280;31280;40.408;17.282;2023-02-01T00:01:44;102032.09;;;8.28
45565;BMP280;31280;40.408;17.282;2023-02-01T00:04:10;102031.75;;;8.29
45565;BMP280;31280;40.408;17.282;2023-02-01T00:06:36;102039.81;;;8.29
45565;BMP280;31280;40.408;17.282;2023-02-01T00:09:02;102036.66;;;8.24
45565;BMP280;31280;40.408;17.282;2023-02-01T00:11:27;102045.41;;;8.18
45565;BMP280;31280;40.408;17.282;2023-02-01T00:13:53;102041.53;;;8.15
45565;BMP280;31280;40.408;17.282;2023-02-01T00:16:21;102053.06;;;8.19
45565;BMP280;31280;40.408;17.282;2023-02-01T00:18:49;102057.72;;;8.22
45565;BMP280;31280;40.408;17.282;2023-02-01T00:21:16;102064.47;;;8.13
45565;BMP280;31280;40.408;17.282;2023-02-01T00:23:42;102048.72;;;8.11
45565;BMP280;31280;40.408;17.282;2023-02-01T00:26:14;102058.06;;;8.17
45565;BMP280;31280;40.408;17.282;2023-02-01T00:28:40;102050.56;;;8.07
45565;BMP280;31280;40.408;17.282;2023-02-01T00:31:06;102064.19;;;8.18
45565;BMP280;31280;40.408;17.282;2023-02-01T00:33:32;102064.53;;;8.16
45565;BMP280;31280;40.408;17.282;2023-02-01T00:35:59;102053.47;;;8.18
45565;BMP280;31280;40.408;17.282;2023-02-01T00:38:26;102052.50;;;8.07
45565;BMP280;31280;40.408;17.282;2023-02-01T00:40:52;102056.16;;;7.99
45565;BMP280;31280;40.408;17.282;2023-02-01T00:43:17;102032.84;;;7.81
45565;BMP280;31280;40.408;17.282;2023-02-01T00:45:45;102047.56;;;7.90
45565;BMP280;31280;40.408;17.282;2023-02-01T00:48:11;102037.38;;;7.77
45565;BMP280;31280;40.408;17.282;2023-02-01T00:50:43;102048.41;;;7.94
45565;BMP280;31280;40.408;17.282;2023-02-01T00:53:10;102055.41;;;7.98
45565;BMP280;31280;40.408;17.282;2023-02-01T00:55:36;102056.34;;;8.09
45565;BMP280;31280;40.408;17.282;2023-02-01T00:58:03;102053.56;;;8.02
45565;BMP280;31280;40.408;17.282;2023-02-01T01:00:33;102047.47;;;8.05
45565;BMP280;31280;40.408;17.282;2023-02-01T01:02:59;102063.78;;;8.16
45565;BMP280;31280;40.408;17.282;2023-02-01T01:05:25;102041.03;;;8.10
45565;BMP280;31280;40.408;17.282;2023-02-01T01:07:53;102069.06;;;8.34
45565;BMP280;31280;40.408;17.282;2023-02-01T01:10:19;102074.53;;;8.41
45565;BMP280;31280;40.408;17.282;2023-02-01T01:12:44;102059.09;;;8.35
45565;BMP280;31280;40.408;17.282;2023-02-01T01:15:10;102067.25;;;8.42
45565;BMP280;31280;40.408;17.282;2023-02-01T01:17:36;102069.06;;;8.38
45565;BMP280;31280;40.408;17.282;2023-02-01T01:20:03;102061.44;;;8.36
45565;BMP280;31280;40.408;17.282;2023-02-01T01:22:28;102052.28;;;8.19
45565;BMP280;31280;40.408;17.282;2023-02-01T01:24:54;102036.78;;;8.09
45565;BMP280;31280;40.408;17.282;2023-02-01T01:27:20;102046.63;;;8.24
45565;BMP280;31280;40.408;17.282;2023-02-01T01:29:49;102048.22;;;8.28
45565;BMP280;31280;40.408;17.282;2023-02-01T01:32:15;102034.09;;;8.31
45565;BMP280;31280;40.408;17.282;2023-02-01T01:34:41;102020.47;;;8.17
45565;BMP280;31280;40.408;17.282;2023-02-01T01:37:06;102027.53;;;8.28
45565;BMP280;31280;40.408;17.282;2023-02-01T01:39:32;102017.47;;;8.22
45565;BMP280;31280;40.408;17.282;2023-02-01T01:41:58;102043.03;;;8.38
45565;BMP280;31280;40.408;17.282;2023-02-01T01:47:20;102044.28;;;8.44
45565;BMP280;31280;40.408;17.282;2023-02-01T01:49:46;102046.19;;;8.44
45565;BMP280;31280;40.408;17.282;2023-02-01T01:52:12;102033.06;;;8.39
45565;BMP280;31280;40.408;17.282;2023-02-01T01:54:41;102046.63;;;8.49
45565;BMP280;31280;40.408;17.282;2023-02-01T01:57:11;102052.44;;;8.51
45565;BMP280;31280;40.408;17.282;2023-02-01T01:59:41;102050.06;;;8.46
45565;BMP280;31280;40.408;17.282;2023-02-01T02:02:09;102039.97;;;8.36
45565;BMP280;31280;40.408;17.282;2023-02-01T02:04:35;102032.19;;;8.31
45565;BMP280;31280;40.408;17.282;2023-02-01T02:07:06;102050.78;;;8.43
45565;BMP280;31280;40.408;17.282;2023-02-01T02:09:33;102048.47;;;8.42
45565;BMP280;31280;40.408;17.282;2023-02-01T02:11:59;102049.25;;;8.42
45565;BMP280;31280;40.408;17.282;2023-02-01T02:14:25;102042.41;;;8.48
45565;BMP280;31280;40.408;17.282;2023-02-01T02:36:30;102031.66;;;8.48
45565;BMP280;31280;40.408;17.282;2023-02-01T02:47:50;102054.16;;;8.37
45565;BMP280;31280;40.408;17.282;2023-02-01T02:53:41;102057.66;;;8.41
45565;BMP280;31280;40.408;17.282;2023-02-01T02:56:27;102050.56;;;8.29
45565;BMP280;31280;40.408;17.282;2023-02-01T02:59:15;102067.69;;;8.47
45565;BMP280;31280;40.408;17.282;2023-02-01T03:02:01;102070.78;;;8.49
45565;BMP280;31280;40.408;17.282;2023-02-01T03:04:46;102048.81;;;8.40
45565;BMP280;31280;40.408;17.282;2023-02-01T03:12:47;102069.34;;;8.52
45565;BMP280;31280;40.408;17.282;2023-02-01T03:15:53;102076.16;;;8.49
45565;BMP280;31280;40.408;17.282;2023-02-01T03:18:32;102075.41;;;8.49
45565;BMP280;31280;40.408;17.282;2023-02-01T03:21:00;102084.59;;;8.48
45565;BMP280;31280;40.408;17.282;2023-02-01T03:23:31;102089.97;;;8.48
45565;BMP280;31280;40.408;17.282;2023-02-01T03:26:00;102092.28;;;8.46
45565;BMP280;31280;40.408;17.282;2023-02-01T03:28:28;102081.53;;;8.46
45565;BMP280;31280;40.408;17.282;2023-02-01T03:30:56;102083.81;;;8.47
45565;BMP280;31280;40.408;17.282;2023-02-01T03:33:23;102088.00;;;8.45
45565;BMP280;31280;40.408;17.282;2023-02-01T03:36:10;102076.84;;;8.43
45565;BMP280;31280;40.408;17.282;2023-02-01T03:38:55;102021.72;;;8.01
45565;BMP280;31280;40.408;17.282;2023-02-01T03:41:53;102090.22;;;8.39
45565;BMP280;31280;40.408;17.282;2023-02-01T03:44:29;102081.69;;;8.34
45565;BMP280;31280;40.408;17.282;2023-02-01T03:47:03;102084.44;;;8.37
45565;BMP280;31280;40.408;17.282;2023-02-01T03:49:49;102087.13;;;8.37
45565;BMP280;31280;40.408;17.282;2023-02-01T03:52:29;102093.66;;;8.36
45565;BMP280;31280;40.408;17.282;2023-02-01T03:54:56;102089.81;;;8.37
45565;BMP280;31280;40.408;17.282;2023-02-01T03:57:27;102083.25;;;8.35
45565;BMP280;31280;40.408;17.282;2023-02-01T04:00:06;102090.53;;;8.34
45565;BMP280;31280;40.408;17.282;2023-02-01T04:02:33;102095.50;;;8.32
45565;BMP280;31280;40.408;17.282;2023-02-01T04:04:59;102092.09;;;8.35
45565;BMP280;31280;40.408;17.282;2023-02-01T04:07:25;102101.28;;;8.34
45565;BMP280;31280;40.408;17.282;2023-02-01T04:09:51;102099.38;;;8.35
45565;BMP280;31280;40.408;17.282;2023-02-01T04:12:16;102087.84;;;8.34
45565;BMP280;31280;40.408;17.282;2023-02-01T04:14:42;102103.59;;;8.36
45565;BMP280;31280;40.408;17.282;2023-02-01T04:17:08;102112.03;;;8.34
45565;BMP280;31280;40.408;17.282;2023-02-01T04:19:33;102110.88;;;8.35
45565;BMP280;31280;40.408;17.282;2023-02-01T04:21:59;102108.19;;;8.35
45565;BMP280;31280;40.408;17.282;2023-02-01T04:24:25;102101.28;;;8.34
45565;BMP280;31280;40.408;17.282;2023-02-01T04:26:50;102101.28;;;8.34
45565;BMP280;31280;40.408;17.282;2023-02-01T04:29:16;102093.38;;;8.23
45565;BMP280;31280;40.408;17.282;2023-02-01T04:31:41;102088.00;;;8.23
45565;BMP280;31280;40.408;17.282;2023-02-01T04:34:08;102101.22;;;8.31
45565;BMP280;31280;40.408;17.282;2023-02-01T04:36:34;102104.75;;;8.35
45565;BMP280;31280;40.408;17.282;2023-02-01T04:38:59;102099.38;;;8.35
45565;BMP280;31280;40.408;17.282;2023-02-01T04:41:25;102101.28;;;8.34
45565;BMP280;31280;40.408;17.282;2023-02-01T04:43:51;102105.81;;;8.30
45565;BMP280;31280;40.408;17.282;2023-02-01T04:46:17;102106.22;;;8.32
45565;BMP280;31280;40.408;17.282;2023-02-01T04:48:43;102113.91;;;8.34
45565;BMP280;31280;40.408;17.282;2023-02-01T04:51:10;102109.59;;;8.29
45565;BMP280;31280;40.408;17.282;2023-02-01T04:53:36;102114.28;;;8.32
45565;BMP280;31280;40.408;17.282;2023-02-01T04:56:02;102115.75;;;8.30
45565;BMP280;31280;40.408;17.282;2023-02-01T04:58:28;102118.00;;;8.28
45565;BMP280;31280;40.408;17.282;2023-02-01T05:00:53;102123.09;;;8.33
45565;BMP280;31280;40.408;17.282;2023-02-01T05:03:19;102095.72;;;8.24
45565;BMP280;31280;40.408;17.282;2023-02-01T05:05:47;102118.22;;;8.38
45565;BMP280;31280;40.408;17.282;2023-02-01T05:08:13;102116.66;;;8.37
45565;BMP280;31280;40.408;17.282;2023-02-01T05:10:39;102125.13;;;8.39
45565;BMP280;31280;40.408;17.282;2023-02-01T05:13:04;102119.81;;;8.43
45565;BMP280;31280;40.408;17.282;2023-02-01T05:15:49;102116.38;;;8.42
45565;BMP280;31280;40.408;17.282;2023-02-01T05:18:15;102108.31;;;8.42
45565;BMP280;31280;40.408;17.282;2023-02-01T05:20:41;102112.09;;;8.41
45565;BMP280;31280;40.408;17.282;2023-02-01T05:23:06;102105.94;;;8.37
45565;BMP280;31280;40.408;17.282;2023-02-01T05:25:32;102103.97;;;8.34
45565;BMP280;31280;40.408;17.282;2023-02-01T05:27:58;102097.03;;;8.33
45565;BMP280;31280;40.408;17.282;2023-02-01T05:30:24;102074.94;;;8.18
45565;BMP280;31280;40.408;17.282;2023-02-01T05:32:51;102098.19;;;8.32
45565;BMP280;31280;40.408;17.282;2023-02-01T05:35:17;102096.59;;;8.31
45565;BMP280;31280;40.408;17.282;2023-02-01T05:37:42;102105.00;;;8.30
45565;BMP280;31280;40.408;17.282;2023-02-01T05:40:09;102099.63;;;8.30
45565;BMP280;31280;40.408;17.282;2023-02-01T05:42:34;102103.84;;;8.27
45565;BMP280;31280;40.408;17.282;2023-02-01T05:45:00;102102.69;;;8.28
45565;BMP280;31280;40.408;17.282;2023-02-01T05:47:26;102105.38;;;8.28
45565;BMP280;31280;40.408;17.282;2023-02-01T05:49:51;102087.16;;;8.19
45565;BMP280;31280;40.408;17.282;2023-02-01T05:52:19;102103.13;;;8.30
45565;BMP280;31280;40.408;17.282;2023-02-01T05:54:47;102104.66;;;8.31
45565;BMP280;31280;40.408;17.282;2023-02-01T05:57:13;102102.41;;;8.33
45565;BMP280;31280;40.408;17.282;2023-02-01T05:59:39;102108.50;;;8.30
45565;BMP280;31280;40.408;17.282;2023-02-01T06:02:11;102105.81;;;8.30
45565;BMP280;31280;40.408;17.282;2023-02-01T06:04:37;102099.38;;;8.35
45565;BMP280;31280;40.408;17.282;2023-02-01T06:07:03;102109.75;;;8.36
45565;BMP280;31280;40.408;17.282;2023-02-01T06:09:29;102111.28;;;8.37
45565;BMP280;31280;40.408;17.282;2023-02-01T06:11:55;102116.28;;;8.39
45565;BMP280;31280;40.408;17.282;2023-02-01T06:14:21;102104.25;;;8.29
45565;BMP280;31280;40.408;17.282;2023-02-01T06:16:46;102100.00;;;8.28
45565;BMP280;31280;40.408;17.282;2023-02-01T06:19:12;102111.19;;;8.30
45565;BMP280;31280;40.408;17.282;2023-02-01T06:21:38;102105.81;;;8.30
45565;BMP280;31280;40.408;17.282;2023-02-01T06:24:04;102090.00;;;8.26
45565;BMP280;31280;40.408;17.282;2023-02-01T06:26:32;102106.53;;;8.27
45565;BMP280;31280;40.408;17.282;2023-02-01T06:28:58;102122.75;;;8.34
45565;BMP280;31280;40.408;17.282;2023-02-01T06:31:24;102128.41;;;8.29
45565;BMP280;31280;40.408;17.282;2023-02-01T06:33:51;102125.31;;;8.27
45565;BMP280;31280;40.408;17.282;2023-02-01T06:36:16;102114.81;;;8.19
45565;BMP280;31280;40.408;17.282;2023-02-01T06:38:44;102131.09;;;8.29
45565;BMP280;31280;40.408;17.282;2023-02-01T06:41:10;102124.94;;;8.29
45565;BMP280;31280;40.408;17.282;2023-02-01T06:43:36;102109.84;;;8.21
45565;BMP280;31280;40.408;17.282;2023-02-01T06:46:05;102125.66;;;8.26
45565;BMP280;31280;40.408;17.282;2023-02-01T06:48:31;102123.38;;;8.28
45565;BMP280;31280;40.408;17.282;2023-02-01T06:50:57;102108.63;;;8.19
45565;BMP280;31280;40.408;17.282;2023-02-01T06:53:24;102121.78;;;8.24
45565;BMP280;31280;40.408;17.282;2023-02-01T06:55:54;102127.63;;;8.29
45565;BMP280;31280;40.408;17.282;2023-02-01T06:58:20;102132.28;;;8.32
45565;BMP280;31280;40.408;17.282;2023-02-01T07:00:46;102139.28;;;8.36
45565;BMP280;31280;40.408;17.282;2023-02-01T07:03:12;102134.72;;;8.40
45565;BMP280;31280;40.408;17.282;2023-02-01T07:05:37;102125.13;;;8.39
45565;BMP280;31280;40.408;17.282;2023-02-01T07:08:03;102139.50;;;8.50
45565;BMP280;31280;40.408;17.282;2023-02-01T07:10:29;102147.63;;;8.54
45565;BMP280;31280;40.408;17.282;2023-02-01T07:12:57;102149.94;;;8.55
45565;BMP280;31280;40.408;17.282;2023-02-01T07:15:23;102140.63;;;8.49
45565;BMP280;31280;40.408;17.282;2023-02-01T07:17:49;102154.53;;;8.55
45565;BMP280;31280;40.408;17.282;2023-02-01T07:20:15;102153.47;;;8.59
45565;BMP280;31280;40.408;17.282;2023-02-01T07:22:41;102163.47;;;8.62
45565;BMP280;31280;40.408;17.282;2023-02-01T07:25:07;102166.59;;;8.64
45565;BMP280;31280;40.408;17.282;2023-02-01T07:27:34;102163.91;;;8.64
45565;BMP280;31280;40.408;17.282;2023-02-01T07:30:00;102186.91;;;8.84
45565;BMP280;31280;40.408;17.282;2023-02-01T07:32:28;102186.66;;;8.95
45565;BMP280;31280;40.408;17.282;2023-02-01T07:34:53;102187.59;;;9.06
45565;BMP280;31280;40.408;17.282;2023-02-01T07:37:19;102192.38;;;9.16
45565;BMP280;31280;40.408;17.282;2023-02-01T07:39:45;102163.50;;;9.13
45565;BMP280;31280;40.408;17.282;2023-02-01T07:42:11;102179.19;;;9.37
45565;BMP280;31280;40.408;17.282;2023-02-01T07:44:36;102188.94;;;9.45
45565;BMP280;31280;40.408;17.282;2023-02-01T07:47:02;102187.53;;;9.57
45565;BMP280;31280;40.408;17.282;2023-02-01T07:49:28;102182.66;;;9.66
45565;BMP280;31280;40.408;17.282;2023-02-01T07:51:53;102187.78;;;9.78
45565;BMP280;31280;40.408;17.282;2023-02-01T07:54:19;102188.72;;;9.89
45565;BMP280;31280;40.408;17.282;2023-02-01T07:56:45;102192.59;;;9.95
45565;BMP280;31280;40.408;17.282;2023-02-01T07:59:10;102177.97;;;9.92
45565;BMP280;31280;40.408;17.282;2023-02-01T08:01:37;102196.63;;;10.11
45565;BMP280;31280;40.408;17.282;2023-02-01T08:04:03;102195.91;;;10.17
45565;BMP280;31280;40.408;17.282;2023-02-01T08:06:31;102204.78;;;10.21
45565;BMP280;31280;40.408;17.282;2023-02-01T08:08:57;102201.78;;;10.26
45565;BMP280;31280;40.408;17.282;2023-02-01T08:11:24;102206.38;;;10.26
45565;BMP280;31280;40.408;17.282;2023-02-01T08:13:50;102194.84;;;10.25
45565;BMP280;31280;40.408;17.282;2023-02-01T08:16:18;102208.03;;;10.37
45565;BMP280;31280;40.408;17.282;2023-02-01T08:18:44;102209.22;;;10.40
45565;BMP280;31280;40.408;17.282;2023-02-01T08:21:12;102211.53;;;10.41
45565;BMP280;31280;40.408;17.282;2023-02-01T08:23:40;102203.44;;;10.41
45565;BMP280;31280;40.408;17.282;2023-02-01T08:26:14;102192.25;;;10.36
45565;BMP280;31280;40.408;17.282;2023-02-01T08:28:43;102200.41;;;10.46
45565;BMP280;31280;40.408;17.282;2023-02-01T08:31:12;102201.22;;;10.50
45565;BMP280;31280;40.408;17.282;2023-02-01T08:33:41;102207.03;;;10.52
45565;BMP280;31280;40.408;17.282;2023-02-01T08:36:09;102204.75;;;10.57
45565;BMP280;31280;40.408;17.282;2023-02-01T08:38:37;102202.03;;;10.54
45565;BMP280;31280;40.408;17.282;2023-02-01T08:41:08;102207.13;;;10.66
45565;BMP280;31280;40.408;17.282;2023-02-01T08:43:34;102211.00;;;10.68
45565;BMP280;31280;40.408;17.282;2023-02-01T08:46:00;102204.44;;;10.69
45565;BMP280;31280;40.408;17.282;2023-02-01T08:48:26;102212.19;;;10.71
45565;BMP280;31280;40.408;17.282;2023-02-01T08:50:51;102207.91;;;10.70
45565;BMP280;31280;40.408;17.282;2023-02-01T08:53:17;102213.75;;;10.75
45565;BMP280;31280;40.408;17.282;2023-02-01T08:55:42;102205.69;;;10.78
45565;BMP280;31280;40.408;17.282;2023-02-01T08:58:08;102205.28;;;10.77
45565;BMP280;31280;40.408;17.282;2023-02-01T09:00:34;102209.56;;;10.84
45565;BMP280;31280;40.408;17.282;2023-02-01T09:03:00;102194.50;;;10.77
45565;BMP280;31280;40.408;17.282;2023-02-01T09:05:25;102207.34;;;10.93
45565;BMP280;31280;40.408;17.282;2023-02-01T09:07:52;102209.69;;;10.98
45565;BMP280;31280;40.408;17.282;2023-02-01T09:10:18;102211.25;;;11.06
45565;BMP280;31280;40.408;17.282;2023-02-01T09:12:44;102200.84;;;10.98
45565;BMP280;31280;40.408;17.282;2023-02-01T09:15:10;102208.22;;;11.11
45565;BMP280;31280;40.408;17.282;2023-02-01T09:17:35;102220.59;;;11.12
45565;BMP280;31280;40.408;17.282;2023-02-01T09:20:03;102214.78;;;11.13
45565;BMP280;31280;40.408;17.282;2023-02-01T09:22:29;102217.16;;;11.18
45565;BMP280;31280;40.408;17.282;2023-02-01T09:24:54;102219.84;;;11.22
45565;BMP280;31280;40.408;17.282;2023-02-01T09:27:20;102221.03;;;11.24
45565;BMP280;31280;40.408;17.282;2023-02-01T09:29:46;102198.63;;;11.17
45565;BMP280;31280;40.408;17.282;2023-02-01T09:32:19;102200.22;;;11.25
45565;BMP280;31280;40.408;17.282;2023-02-01T09:34:45;102214.16;;;11.37
45565;BMP280;31280;40.408;17.282;2023-02-01T09:37:10;102214.56;;;11.42
45565;BMP280;31280;40.408;17.282;2023-02-01T09:39:36;102209.56;;;11.44
45565;BMP280;31280;40.408;17.282;2023-02-01T09:47:29;102214.66;;;11.63
45565;BMP280;31280;40.408;17.282;2023-02-01T09:50:30;102207.03;;;11.82
45565;BMP280;31280;40.408;17.282;2023-02-01T09:53:03;102204.72;;;11.95
45565;BMP280;31280;40.408;17.282;2023-02-01T09:55:38;102198.19;;;12.02
45565;BMP280;31280;40.408;17.282;2023-02-01T10:00:53;102190.88;;;12.13
45565;BMP280;31280;40.408;17.282;2023-02-01T10:03:20;102187.41;;;12.16
45565;BMP280;31280;40.408;17.282;2023-02-01T10:11:08;102181.22;;;12.19
45565;BMP280;31280;40.408;17.282;2023-02-01T10:16:30;102167.72;;;12.23
45565;BMP280;31280;40.408;17.282;2023-02-01T10:21:36;102160.38;;;12.37
45565;BMP280;31280;40.408;17.282;2023-02-01T10:24:32;102162.31;;;12.40
45565;BMP280;31280;40.408;17.282;2023-02-01T10:27:20;102149.56;;;12.40
45565;BMP280;31280;40.408;17.282;2023-02-01T10:29:52;102143.78;;;12.42
45565;BMP280;31280;40.408;17.282;2023-02-01T10:32:27;102139.16;;;12.42
45565;BMP280;31280;40.408;17.282;2023-02-01T10:35:09;102139.13;;;12.46
45565;BMP280;31280;40.408;17.282;2023-02-01T10:37:37;102129.47;;;12.52
45565;BMP280;31280;40.408;17.282;2023-02-01T10:40:21;102117.91;;;12.48
45565;BMP280;31280;40.408;17.282;2023-02-01T10:42:49;102132.97;;;12.63
45565;BMP280;31280;40.408;17.282;2023-02-01T10:45:21;102129.84;;;12.67
45565;BMP280;31280;40.408;17.282;2023-02-01T10:47:51;102123.28;;;12.75
45565;BMP280;31280;40.408;17.282;2023-02-01T10:56:06;102088.44;;;12.91
45565;BMP280;31280;40.408;17.282;2023-02-01T10:58:32;102103.84;;;13.04
45565;BMP280;31280;40.408;17.282;2023-02-01T11:01:09;102099.94;;;13.09
45565;BMP280;31280;40.408;17.282;2023-02-01T11:03:40;102077.91;;;13.10
45565;BMP280;31280;40.408;17.282;2023-02-01T11:08:50;102075.06;;;13.34
45565;BMP280;31280;40.408;17.282;2023-02-01T11:11:16;102075.84;;;13.38
45565;BMP280;31280;40.408;17.282;2023-02-01T11:13:42;102076.16;;;13.44
45565;BMP280;31280;40.408;17.282;2023-02-01T11:16:13;102073.88;;;13.42
45565;BMP280;31280;40.408;17.282;2023-02-01T11:18:39;102069.19;;;13.50
45565;BMP280;31280;40.408;17.282;2023-02-01T11:21:06;102069.56;;;13.48
45565;BMP280;31280;40.408;17.282;2023-02-01T11:23:33;102062.97;;;13.49
45565;BMP280;31280;40.408;17.282;2023-02-01T11:26:24;102054.06;;;13.55
45565;BMP280;31280;40.408;17.282;2023-02-01T11:29:03;102048.28;;;13.50
45565;BMP280;31280;40.408;17.282;2023-02-01T11:31:30;102054.44;;;13.54
45565;BMP280;31280;40.408;17.282;2023-02-01T11:34:21;102048.19;;;13.57
45565;BMP280;31280;40.408;17.282;2023-02-01T11:36:48;102040.81;;;13.64
45565;BMP280;31280;40.408;17.282;2023-02-01T11:41:44;102034.97;;;13.69
45565;BMP280;31280;40.408;17.282;2023-02-01T11:44:23;102035.44;;;13.61
45565;BMP280;31280;40.408;17.282;2023-02-01T11:46:52;102024.91;;;13.70
45565;BMP280;31280;40.408;17.282;2023-02-01T11:49:25;102022.53;;;13.75
45565;BMP280;31280;40.408;17.282;2023-02-01T11:52:07;102017.19;;;13.68
45565;BMP280;31280;40.408;17.282;2023-02-01T12:00:49;102013.50;;;13.88
45565;BMP280;31280;40.408;17.282;2023-02-01T12:06:31;102004.16;;;13.93
45565;BMP280;31280;40.408;17.282;2023-02-01T12:11:46;101988.25;;;13.98
45565;BMP280;31280;40.408;17.282;2023-02-01T12:25:57;101979.34;;;14.01
45565;BMP280;31280;40.408;17.282;2023-02-01T12:39:40;101976.88;;;14.46
45565;BMP280;31280;40.408;17.282;2023-02-01T12:42:23;101977.69;;;14.43
45565;BMP280;31280;40.408;17.282;2023-02-01T12:45:13;101973.63;;;14.58
45565;BMP280;31280;40.408;17.282;2023-02-01T12:47:45;101979.19;;;14.74
45565;BMP280;31280;40.408;17.282;2023-02-01T12:50:20;101987.28;;;14.77
45565;BMP280;31280;40.408;17.282;2023-02-01T12:52:49;101990.31;;;14.83
45565;BMP280;31280;40.408;17.282;2023-02-01T12:55:27;101981.47;;;14.79
45565;BMP280;31280;40.408;17.282;2023-02-01T12:58:21;101978.81;;;14.72
45565;BMP280;31280;40.408;17.282;2023-02-01T13:00:58;101984.78;;;14.90
45565;BMP280;31280;40.408;17.282;2023-02-01T13:04:11;101973.88;;;14.93
45565;BMP280;31280;40.408;17.282;2023-02-01T13:07:04;101981.16;;;14.99
45565;BMP280;31280;40.408;17.282;2023-02-01T13:09:51;101973.50;;;15.17
45565;BMP280;31280;40.408;17.282;2023-02-01T13:12:40;101964.81;;;15.26
45565;BMP280;31280;40.408;17.282;2023-02-01T13:15:20;101951.44;;;15.15
45565;BMP280;31280;40.408;17.282;2023-02-01T13:17:47;101966.19;;;15.37
45565;BMP280;31280;40.408;17.282;2023-02-01T13:20:32;101968.13;;;15.59
45565;BMP280;31280;40.408;17.282;2023-02-01T13:23:24;101969.16;;;15.46
45565;BMP280;31280;40.408;17.282;2023-02-01T13:25:52;101967.16;;;15.50
45565;BMP280;31280;40.408;17.282;2023-02-01T13:39:21;101957.28;;;15.59
45565;BMP280;31280;40.408;17.282;2023-02-01T13:46:54;101957.56;;;16.41
45565;BMP280;31280;40.408;17.282;2023-02-01T13:49:27;101952.66;;;16.83
45565;BMP280;31280;40.408;17.282;2023-02-01T13:51:56;101932.34;;;16.88
45565;BMP280;31280;40.408;17.282;2023-02-01T13:54:31;101945.81;;;17.10
45565;BMP280;31280;40.408;17.282;2023-02-01T13:56:59;101940.59;;;17.16
45565;BMP280;31280;40.408;17.282;2023-02-01T14:05:09;101940.31;;;17.26
45565;BMP280;31280;40.408;17.282;2023-02-01T14:07:36;101948.44;;;17.29
45565;BMP280;31280;40.408;17.282;2023-02-01T14:13:13;101947.97;;;17.31
45565;BMP280;31280;40.408;17.282;2023-02-01T14:15:39;101940.69;;;16.81
45565;BMP280;31280;40.408;17.282;2023-02-01T14:21:34;101951.97;;;16.64
45565;BMP280;31280;40.408;17.282;2023-02-01T14:24:16;101945.84;;;16.60
45565;BMP280;31280;40.408;17.282;2023-02-01T14:26:47;101936.97;;;16.40
45565;BMP280;31280;40.408;17.282;2023-02-01T14:37:00;101949.69;;;15.70
45565;BMP280;31280;40.408;17.282;2023-02-01T14:39:59;101951.31;;;15.45
45565;BMP280;31280;40.408;17.282;2023-02-01T14:42:47;101953.25;;;15.22
45565;BMP280;31280;40.408;17.282;2023-02-01T14:47:49;101958.13;;;14.85
45565;BMP280;31280;40.408;17.282;2023-02-01T14:50:46;101960.22;;;14.74
45565;BMP280;31280;40.408;17.282;2023-02-01T14:58:40;101957.63;;;14.34
45565;BMP280;31280;40.408;17.282;2023-02-01T15:01:25;101960.94;;;14.19
45565;BMP280;31280;40.408;17.282;2023-02-01T15:06:30;101954.16;;;14.01
45565;BMP280;31280;40.408;17.282;2023-02-01T15:09:09;101951.91;;;13.96
45565;BMP280;31280;40.408;17.282;2023-02-01T15:14:42;101931.19;;;13.79
45565;BMP280;31280;40.408;17.282;2023-02-01T15:17:28;101936.63;;;13.76
45565;BMP280;31280;40.408;17.282;2023-02-01T15:20:14;101942.97;;;13.62
45565;BMP280;31280;40.408;17.282;2023-02-01T15:22:41;101948.47;;;13.52
45565;BMP280;31280;40.408;17.282;2023-02-01T15:25:29;101939.28;;;13.39
45565;BMP280;31280;40.408;17.282;2023-02-01T15:27:55;101937.47;;;13.29
45565;BMP280;31280;40.408;17.282;2023-02-01T15:30:30;101930.22;;;13.16
45565;BMP280;31280;40.408;17.282;2023-02-01T15:43:21;101940.44;;;12.95
45565;BMP280;31280;40.408;17.282;2023-02-01T15:45:47;101918.88;;;12.81
45565;BMP280;31280;40.408;17.282;2023-02-01T15:48:21;101940.47;;;12.88
45565;BMP280;31280;40.408;17.282;2023-02-01T15:50:48;101940.13;;;12.79
45565;BMP280;31280;40.408;17.282;2023-02-01T15:53:18;101952.13;;;12.71
45565;BMP280;31280;40.408;17.282;2023-02-01T15:55:45;101945.59;;;12.65
45565;BMP280;31280;40.408;17.282;2023-02-01T15:58:21;101952.97;;;12.58
45565;BMP280;31280;40.408;17.282;2023-02-01T16:00:58;101956.09;;;12.57
45565;BMP280;31280;40.408;17.282;2023-02-01T16:03:33;101946.13;;;12.43
45565;BMP280;31280;40.408;17.282;2023-02-01T16:06:08;101957.66;;;12.51
45565;BMP280;31280;40.408;17.282;2023-02-01T16:08:34;101954.19;;;12.47
45565;BMP280;31280;40.408;17.282;2023-02-01T16:13:34;101943.84;;;12.28
45565;BMP280;31280;40.408;17.282;2023-02-01T16:15:59;101960.81;;;12.32
45565;BMP280;31280;40.408;17.282;2023-02-01T16:18:25;101952.34;;;12.23
45565;BMP280;31280;40.408;17.282;2023-02-01T16:20:51;101954.66;;;12.21
45565;BMP280;31280;40.408;17.282;2023-02-01T16:23:17;101962.41;;;12.23
45565;BMP280;31280;40.408;17.282;2023-02-01T16:25:43;101967.03;;;12.22
45565;BMP280;31280;40.408;17.282;2023-02-01T16:28:08;101967.03;;;12.22
45565;BMP280;31280;40.408;17.282;2023-02-01T16:30:35;101956.25;;;12.15
45565;BMP280;31280;40.408;17.282;2023-02-01T16:33:01;101977.84;;;12.22
45565;BMP280;31280;40.408;17.282;2023-02-01T16:35:35;101973.59;;;12.21
45565;BMP280;31280;40.408;17.282;2023-02-01T16:38:03;101971.66;;;12.22
45565;BMP280;31280;40.408;17.282;2023-02-01T16:40:34;101970.50;;;12.23
45565;BMP280;31280;40.408;17.282;2023-02-01T16:42:59;101964.34;;;12.22
45565;BMP280;31280;40.408;17.282;2023-02-01T16:45:25;101963.91;;;12.27
45565;BMP280;31280;40.408;17.282;2023-02-01T16:47:54;101936.94;;;12.17
45565;BMP280;31280;40.408;17.282;2023-02-01T16:50:22;101955.03;;;12.33
45565;BMP280;31280;40.408;17.282;2023-02-01T16:52:48;101954.22;;;12.33
45565;BMP280;31280;40.408;17.282;2023-02-01T16:55:16;101958.88;;;12.36